Time;durP1;ratioP1;P1;durP2;ratioP2;P2;SDS_P1;SDS_P2;PMS_P1;PMS_P2;Temp;Humidity;BMP_temperature;BMP_pressure;BME280_temperature;BME280_humidity;BME280_pressure;Samples;Min_cycle;Max_cycle;Signal;HPM_P1;HPM_P2
2023/12/05 00:00:02;;;;;;;2.08;1.88;;;26.90;48.20;;;;;;4976929;28;20992;-51
2023/12/05 00:02:28;;;;;;;1.90;1.55;;;26.80;48.20;;;;;;4982753;28;20105;-50
2023/12/05 00:04:53;;;;;;;1.60;1.50;;;26.80;48.30;;;;;;4982944;28;20030;-50
2023/12/05 00:07:20;;;;;;;2.00;1.80;;;26.90;48.10;;;;;;4986870;28;20030;-51
2023/12/05 00:09:45;;;;;;;1.73;1.42;;;26.90;48.30;;;;;;4975975;28;20535;-51
2023/12/05 00:12:11;;;;;;;2.00;1.55;;;26.80;48.20;;;;;;4997659;28;20118;-51
2023/12/05 00:14:36;;;;;;;2.15;1.55;;;26.80;48.30;;;;;;4997767;28;20033;-52
2023/12/05 00:17:02;;;;;;;1.70;1.60;;;26.80;48.40;;;;;;4997926;28;20702;-51
2023/12/05 00:19:27;;;;;;;2.08;1.83;;;26.90;48.40;;;;;;5007498;28;20045;-50
2023/12/05 00:21:52;;;;;;;4.55;2.30;;;26.80;48.40;;;;;;5007015;28;21246;-49
2023/12/05 00:24:18;;;;;;;1.77;1.42;;;26.70;48.60;;;;;;5001212;28;20042;-50
2023/12/05 00:26:44;;;;;;;2.30;1.85;;;26.70;48.40;;;;;;4985843;28;20034;-50
2023/12/05 00:29:09;;;;;;;1.70;1.60;;;26.80;48.60;;;;;;5002958;28;20088;-51
2023/12/05 00:31:35;;;;;;;1.83;1.65;;;26.80;48.50;;;;;;5005518;28;20041;-51
2023/12/05 00:34:00;;;;;;;1.98;1.80;;;26.80;48.70;;;;;;4999619;28;20029;-52
2023/12/05 00:36:26;;;;;;;1.95;1.55;;;26.70;48.70;;;;;;4991523;28;20570;-53
2023/12/05 00:38:51;;;;;;;2.13;1.85;;;26.70;48.70;;;;;;5008557;28;20519;-50
2023/12/05 00:41:17;;;;;;;1.95;1.75;;;26.70;48.60;;;;;;4989284;28;20037;-50
2023/12/05 00:43:42;;;;;;;1.60;1.40;;;26.70;48.70;;;;;;5002367;28;20125;-50
2023/12/05 00:46:08;;;;;;;1.70;1.60;;;26.60;48.70;;;;;;4996896;28;20030;-51
2023/12/05 00:48:33;;;;;;;2.70;1.80;;;26.60;48.80;;;;;;4996106;28;20448;-51
2023/12/05 00:50:58;;;;;;;1.90;1.60;;;26.60;48.80;;;;;;5000624;28;20025;-50
2023/12/05 00:53:24;;;;;;;2.25;1.90;;;26.70;48.80;;;;;;4999567;28;20542;-50
2023/12/05 00:55:49;;;;;;;2.00;1.80;;;26.60;48.80;;;;;;5000708;28;20030;-52
2023/12/05 00:58:15;;;;;;;1.88;1.77;;;26.60;48.80;;;;;;5008409;28;20025;-52
2023/12/05 01:00:40;;;;;;;2.15;1.80;;;26.60;49.00;;;;;;5005117;28;20026;-50
2023/12/05 01:03:06;;;;;;;2.00;1.75;;;26.60;49.00;;;;;;4994259;28;20042;-49
2023/12/05 01:05:33;;;;;;;1.60;1.50;;;26.60;49.00;;;;;;4996391;28;20420;-51
2023/12/05 01:07:59;;;;;;;2.63;1.90;;;26.60;49.00;;;;;;4984683;28;20558;-49
2023/12/05 01:10:25;;;;;;;2.05;1.88;;;26.60;49.10;;;;;;5003186;28;20049;-49
2023/12/05 01:12:50;;;;;;;1.80;1.55;;;26.60;49.20;;;;;;4993832;28;20058;-50
2023/12/05 01:15:16;;;;;;;2.20;2.00;;;26.50;49.20;;;;;;5002131;28;20034;-49
2023/12/05 01:17:41;;;;;;;3.03;1.80;;;26.50;49.20;;;;;;4996844;28;20036;-52
2023/12/05 01:20:11;;;;;;;1.98;1.77;;;26.40;49.20;;;;;;5005001;28;20022;-52
2023/12/05 01:22:37;;;;;;;2.42;2.20;;;26.40;50.10;;;;;;4999124;28;20458;-51
2023/12/05 01:25:03;;;;;;;2.25;2.05;;;26.30;49.40;;;;;;4997280;28;20066;-53
2023/12/05 01:27:28;;;;;;;2.05;1.90;;;26.10;49.70;;;;;;5000802;28;20060;-51
2023/12/05 01:29:54;;;;;;;2.08;1.88;;;26.00;50.00;;;;;;5005195;28;20060;-51
2023/12/05 01:32:19;;;;;;;1.73;1.63;;;25.80;50.40;;;;;;4997371;28;20391;-52
2023/12/05 01:34:45;;;;;;;2.30;2.10;;;25.60;50.60;;;;;;5000788;28;20781;-51
2023/12/05 01:37:10;;;;;;;2.03;1.80;;;25.40;50.90;;;;;;4997283;28;20034;-52
2023/12/05 01:39:36;;;;;;;2.40;1.98;;;25.20;51.20;;;;;;4999398;28;20038;-52
2023/12/05 01:42:02;;;;;;;2.75;2.05;;;25.10;51.50;;;;;;4997336;28;20104;-53
2023/12/05 01:44:27;;;;;;;1.80;1.70;;;24.90;51.80;;;;;;5002894;28;20026;-53
2023/12/05 01:46:53;;;;;;;1.95;1.77;;;24.70;52.10;;;;;;4995613;28;20056;-50
2023/12/05 01:49:18;;;;;;;2.58;2.33;;;24.50;52.30;;;;;;4996801;28;20050;-51
2023/12/05 01:51:45;;;;;;;2.33;2.13;;;24.50;52.40;;;;;;4997139;28;20527;-52
2023/12/05 01:54:11;;;;;;;2.33;2.13;;;24.50;52.30;;;;;;5002389;28;20117;-53
2023/12/05 01:56:37;;;;;;;2.22;1.95;;;24.50;52.10;;;;;;4994638;28;20486;-52
2023/12/05 01:59:02;;;;;;;2.35;2.15;;;24.50;52.00;;;;;;5000705;28;20034;-50
2023/12/05 02:01:28;;;;;;;2.58;1.98;;;24.60;52.20;;;;;;4995829;28;20030;-50
2023/12/05 02:03:54;;;;;;;2.40;2.00;;;24.60;52.00;;;;;;4988451;28;20267;-51
2023/12/05 02:06:21;;;;;;;2.08;1.88;;;24.70;51.70;;;;;;4998291;28;20026;-50
2023/12/05 02:08:49;;;;;;;2.72;2.15;;;24.70;51.60;;;;;;4988321;28;20034;-51
2023/12/05 02:11:15;;;;;;;2.42;2.05;;;24.80;51.60;;;;;;5001009;28;20058;-50
2023/12/05 02:13:43;;;;;;;2.20;2.00;;;24.80;51.50;;;;;;4994800;28;20560;-51
2023/12/05 02:16:27;;;;;;;2.33;2.13;;;24.80;51.30;;;;;;4984224;28;20403;-50
2023/12/05 02:19:00;;;;;;;2.35;2.13;;;24.90;51.10;;;;;;4996028;28;20306;-50
2023/12/05 02:21:32;;;;;;;2.63;2.42;;;24.90;51.00;;;;;;4999310;28;20036;-50
2023/12/05 02:24:36;;;;;;;4.15;2.28;;;25.10;50.90;;;;;;4992377;28;20044;-51
2023/12/05 02:27:07;;;;;;;2.17;1.98;;;25.10;50.60;;;;;;4974922;28;20078;-48
2023/12/05 02:29:32;;;;;;;1.92;1.73;;;25.30;50.30;;;;;;4979038;28;20022;-53
2023/12/05 02:31:59;;;;;;;2.10;1.90;;;25.50;50.20;;;;;;4979078;28;20030;-52
2023/12/05 02:34:24;;;;;;;1.90;1.70;;;25.50;50.00;;;;;;4980843;28;20034;-51
2023/12/05 02:37:04;;;;;;;2.08;1.85;;;25.60;49.90;;;;;;4979797;28;20039;-51
2023/12/05 02:39:40;;;;;;;2.47;2.28;;;25.70;49.80;;;;;;4977004;28;20113;-50
2023/12/05 02:42:10;;;;;;;2.20;2.00;;;25.80;49.50;;;;;;4981932;28;20113;-51
2023/12/05 02:44:47;;;;;;;2.22;2.00;;;25.90;49.60;;;;;;4973907;28;20385;-49
2023/12/05 02:47:15;;;;;;;2.05;1.83;;;25.90;49.40;;;;;;4977758;28;20491;-53
2023/12/05 02:49:41;;;;;;;2.10;1.90;;;26.00;49.60;;;;;;4976120;28;20546;-52
2023/12/05 02:52:06;;;;;;;1.65;1.55;;;26.00;49.40;;;;;;4978603;28;20034;-51
2023/12/05 02:54:32;;;;;;;2.20;2.00;;;26.10;49.30;;;;;;4977595;28;20480;-52
2023/12/05 02:56:57;;;;;;;2.25;2.03;;;26.20;49.10;;;;;;4983247;28;20484;-51
2023/12/05 02:59:23;;;;;;;2.30;2.00;;;26.20;49.10;;;;;;4970560;28;20121;-50
2023/12/05 03:01:48;;;;;;;2.33;2.13;;;26.20;49.90;;;;;;4973796;28;20134;-50
2023/12/05 03:04:14;;;;;;;1.80;1.70;;;26.20;49.10;;;;;;4976751;28;20046;-50
2023/12/05 03:06:39;;;;;;;1.77;1.67;;;26.30;49.10;;;;;;4979478;28;20456;-50
2023/12/05 03:09:05;;;;;;;2.25;2.05;;;26.30;49.10;;;;;;4992233;28;20034;-51
2023/12/05 03:11:31;;;;;;;1.98;1.77;;;26.20;49.40;;;;;;4988349;28;20034;-52
2023/12/05 03:13:58;;;;;;;2.50;2.20;;;26.10;49.30;;;;;;4988976;28;20099;-48
2023/12/05 03:16:23;;;;;;;2.22;1.80;;;26.10;49.30;;;;;;4993080;28;20050;-51
2023/12/05 03:18:48;;;;;;;2.30;2.10;;;26.20;49.40;;;;;;4987530;28;20112;-53
2023/12/05 03:21:20;;;;;;;2.58;2.38;;;26.20;49.20;;;;;;4997842;28;20037;-49
2023/12/05 03:23:45;;;;;;;2.40;1.75;;;26.20;49.10;;;;;;4996250;28;20027;-50
2023/12/05 03:26:21;;;;;;;2.22;2.03;;;26.20;49.20;;;;;;4982874;28;20038;-51
2023/12/05 03:28:51;;;;;;;2.47;2.20;;;26.20;49.20;;;;;;4977504;28;20030;-52
2023/12/05 03:31:17;;;;;;;1.83;1.73;;;26.30;49.20;;;;;;4973522;28;20058;-51
2023/12/05 03:33:43;;;;;;;1.83;1.73;;;26.30;49.20;;;;;;4979130;28;20038;-50
2023/12/05 03:36:10;;;;;;;2.13;1.95;;;26.30;49.20;;;;;;4980947;28;20042;-51
2023/12/05 03:38:38;;;;;;;2.13;1.95;;;26.30;49.10;;;;;;4976871;28;20105;-49
2023/12/05 03:41:05;;;;;;;2.40;2.20;;;26.30;49.20;;;;;;4981116;28;20436;-51
2023/12/05 03:43:30;;;;;;;2.20;2.00;;;26.30;49.20;;;;;;4977936;28;20676;-52
2023/12/05 03:45:55;;;;;;;2.17;1.95;;;26.30;49.20;;;;;;4980268;28;20039;-52
2023/12/05 03:48:21;;;;;;;2.10;1.90;;;26.30;49.20;;;;;;4994113;28;20061;-54
2023/12/05 03:50:46;;;;;;;2.33;2.08;;;26.20;49.20;;;;;;4980841;28;20026;-50
2023/12/05 03:53:12;;;;;;;2.20;2.00;;;26.30;49.30;;;;;;4977919;28;20488;-50
2023/12/05 03:55:37;;;;;;;2.45;2.25;;;26.30;49.20;;;;;;4981562;28;20121;-51
2023/12/05 03:58:03;;;;;;;2.08;1.95;;;26.30;49.20;;;;;;4984880;28;20109;-52
2023/12/05 04:00:28;;;;;;;2.58;1.92;;;26.20;49.20;;;;;;4981644;28;20026;-53
2023/12/05 04:02:55;;;;;;;1.77;1.67;;;26.20;49.30;;;;;;4983062;28;20522;-52
2023/12/05 04:05:20;;;;;;;2.33;2.13;;;26.20;49.30;;;;;;4982594;28;20080;-52
2023/12/05 04:07:46;;;;;;;1.88;1.67;;;26.30;49.30;;;;;;4981311;28;20026;-50
2023/12/05 04:10:12;;;;;;;2.10;1.90;;;26.30;49.20;;;;;;4981043;28;20035;-51
2023/12/05 04:12:39;;;;;;;2.13;1.92;;;26.30;49.20;;;;;;4982746;28;20507;-52
2023/12/05 04:15:05;;;;;;;1.90;1.80;;;26.30;49.20;;;;;;4980089;28;20377;-52
2023/12/05 04:17:31;;;;;;;2.08;1.88;;;26.30;49.30;;;;;;4980741;28;20038;-51
2023/12/05 04:19:56;;;;;;;2.25;2.05;;;26.30;49.30;;;;;;4979514;28;20034;-52
2023/12/05 04:22:22;;;;;;;2.08;1.88;;;26.30;49.20;;;;;;4981019;28;20564;-52
2023/12/05 04:24:47;;;;;;;2.03;1.70;;;26.30;49.40;;;;;;4978746;28;20036;-52
2023/12/05 04:27:13;;;;;;;1.83;1.73;;;26.20;49.30;;;;;;4981069;28;20037;-53
2023/12/05 04:29:39;;;;;;;2.28;2.08;;;26.20;49.30;;;;;;4981639;28;20026;-51
2023/12/05 04:32:05;;;;;;;2.08;1.88;;;26.20;49.30;;;;;;4982723;28;20034;-50
2023/12/05 04:34:30;;;;;;;1.80;1.70;;;26.20;49.40;;;;;;4981070;28;20484;-50
2023/12/05 04:36:56;;;;;;;2.25;2.05;;;26.20;49.50;;;;;;4982342;28;20065;-49
2023/12/05 04:39:21;;;;;;;2.50;2.03;;;26.10;49.60;;;;;;4982152;28;20524;-51
2023/12/05 04:41:46;;;;;;;2.40;2.08;;;26.00;49.60;;;;;;4983264;28;20606;-50
2023/12/05 04:44:12;;;;;;;2.30;2.10;;;25.90;49.80;;;;;;4984672;28;20042;-51
2023/12/05 04:46:37;;;;;;;2.65;2.05;;;25.80;49.90;;;;;;4983608;28;20088;-51
2023/12/05 04:49:05;;;;;;;2.17;1.98;;;25.70;50.20;;;;;;4980557;28;20042;-49
2023/12/05 04:51:30;;;;;;;2.15;1.95;;;25.70;50.20;;;;;;4984125;28;20076;-50
2023/12/05 04:53:56;;;;;;;2.28;2.00;;;25.60;50.40;;;;;;4980972;28;20458;-49
2023/12/05 04:56:22;;;;;;;2.20;2.00;;;25.50;50.50;;;;;;4981518;28;20121;-60
2023/12/05 04:58:48;;;;;;;2.50;2.30;;;25.50;50.50;;;;;;4986250;28;20114;-50
2023/12/05 05:01:14;;;;;;;2.28;1.80;;;25.40;50.50;;;;;;4984965;28;20058;-51
2023/12/05 05:03:40;;;;;;;2.15;2.00;;;25.30;50.50;;;;;;4987070;28;20030;-50
2023/12/05 05:06:05;;;;;;;2.38;2.10;;;25.30;50.70;;;;;;4983067;28;20056;-51
2023/12/05 05:08:31;;;;;;;3.40;2.08;;;25.30;50.70;;;;;;4986892;28;20038;-50
2023/12/05 05:10:56;;;;;;;2.10;1.90;;;25.30;50.90;;;;;;4984211;28;20038;-54
2023/12/05 05:13:22;;;;;;;2.10;1.90;;;25.20;50.90;;;;;;4986053;28;20057;-57
2023/12/05 05:15:47;;;;;;;2.38;2.17;;;25.20;50.80;;;;;;4982260;28;20239;-50
2023/12/05 05:18:13;;;;;;;2.40;2.20;;;25.10;50.70;;;;;;4983273;28;20514;-49
2023/12/05 05:20:38;;;;;;;1.88;1.75;;;25.10;51.00;;;;;;4981590;28;20568;-50
2023/12/05 05:23:04;;;;;;;1.85;1.73;;;25.10;51.00;;;;;;4982004;28;20114;-51
2023/12/05 05:25:30;;;;;;;2.03;1.85;;;25.10;50.90;;;;;;4980124;28;20472;-52
2023/12/05 05:27:56;;;;;;;2.47;2.28;;;25.10;50.90;;;;;;4981905;28;20093;-51
2023/12/05 05:30:22;;;;;;;2.05;1.90;;;25.10;51.00;;;;;;4983076;28;20762;-51
2023/12/05 05:32:47;;;;;;;2.55;2.10;;;25.00;51.00;;;;;;4983083;28;20034;-51
2023/12/05 05:35:12;;;;;;;1.92;1.73;;;25.00;51.00;;;;;;4984243;28;20035;-51
2023/12/05 05:37:38;;;;;;;2.35;2.15;;;25.00;51.10;;;;;;4983836;28;20062;-51
2023/12/05 05:40:06;;;;;;;2.30;2.10;;;25.00;51.00;;;;;;4981899;28;20022;-52
2023/12/05 05:42:32;;;;;;;2.03;1.92;;;24.90;51.60;;;;;;4981245;28;20042;-49
2023/12/05 05:44:57;;;;;;;2.28;2.08;;;24.90;51.10;;;;;;4980204;28;20042;-56
2023/12/05 05:47:23;;;;;;;2.10;1.90;;;24.90;51.10;;;;;;4981993;28;20023;-54
2023/12/05 05:49:48;;;;;;;2.03;1.83;;;24.90;51.10;;;;;;4979602;28;20030;-54
2023/12/05 05:52:14;;;;;;;2.00;1.80;;;24.90;51.00;;;;;;4984680;28;20089;-51
2023/12/05 05:54:39;;;;;;;2.13;2.00;;;24.90;51.20;;;;;;4980410;28;20509;-52
2023/12/05 05:57:05;;;;;;;2.40;2.20;;;24.90;51.10;;;;;;4979952;28;20042;-55
2023/12/05 05:59:30;;;;;;;2.33;2.13;;;24.90;51.20;;;;;;4985373;28;20034;-53
2023/12/05 06:01:56;;;;;;;1.75;1.65;;;24.90;51.20;;;;;;4984402;28;20030;-51
2023/12/05 06:04:21;;;;;;;2.40;2.20;;;24.90;51.00;;;;;;4987087;28;20026;-52
2023/12/05 06:06:47;;;;;;;1.80;1.70;;;24.90;51.10;;;;;;4978916;28;20062;-51
2023/12/05 06:09:12;;;;;;;2.05;1.83;;;24.90;51.00;;;;;;4986116;28;20615;-51
2023/12/05 06:11:38;;;;;;;2.22;2.03;;;24.90;50.90;;;;;;4982689;28;20030;-51
2023/12/05 06:14:04;;;;;;;1.80;1.70;;;25.00;50.80;;;;;;4998998;28;20084;-51
2023/12/05 06:16:29;;;;;;;2.03;1.83;;;25.00;51.30;;;;;;4999271;28;20034;-52
2023/12/05 06:18:55;;;;;;;1.73;1.63;;;25.00;50.60;;;;;;5003098;28;20057;-52
2023/12/05 06:21:20;;;;;;;2.17;1.88;;;25.00;50.60;;;;;;4983862;28;20520;-51
2023/12/05 06:23:46;;;;;;;2.13;1.92;;;25.00;50.60;;;;;;5003893;28;20100;-53
2023/12/05 06:26:12;;;;;;;2.63;2.00;;;25.00;50.70;;;;;;4998974;28;20026;-53
2023/12/05 06:28:38;;;;;;;2.90;2.05;;;25.00;50.70;;;;;;5005825;28;20045;-52
2023/12/05 06:31:03;;;;;;;1.90;1.80;;;24.90;50.70;;;;;;5003192;28;20052;-54
2023/12/05 06:33:29;;;;;;;2.00;1.75;;;24.90;50.90;;;;;;5000365;28;20073;-51
2023/12/05 06:35:54;;;;;;;2.20;1.90;;;24.80;51.00;;;;;;4988876;28;20038;-52
2023/12/05 06:38:20;;;;;;;1.55;1.45;;;24.80;50.90;;;;;;4993770;28;20502;-51
2023/12/05 06:40:45;;;;;;;2.40;2.03;;;24.80;51.20;;;;;;5004013;28;20537;-50
2023/12/05 06:43:11;;;;;;;2.00;1.80;;;24.70;51.00;;;;;;5004606;28;20029;-52
2023/12/05 06:45:36;;;;;;;2.22;1.83;;;24.70;51.10;;;;;;5003183;28;20061;-51
2023/12/05 06:48:02;;;;;;;2.10;2.00;;;24.70;51.20;;;;;;5000050;28;20040;-53
2023/12/05 06:50:27;;;;;;;2.72;1.85;;;24.70;51.20;;;;;;5001481;28;20495;-51
2023/12/05 06:52:57;;;;;;;1.88;1.77;;;24.70;51.20;;;;;;4985784;28;20061;-52
2023/12/05 06:55:26;;;;;;;2.50;2.25;;;24.60;51.20;;;;;;4997692;28;20049;-54
2023/12/05 06:57:52;;;;;;;2.10;1.90;;;24.60;51.20;;;;;;5002026;28;20042;-52
2023/12/05 07:00:18;;;;;;;2.17;1.95;;;24.60;51.30;;;;;;5003960;28;20040;-52
2023/12/05 07:02:44;;;;;;;2.22;1.88;;;24.60;51.20;;;;;;5004257;28;20029;-52
2023/12/05 07:05:10;;;;;;;2.30;1.75;;;24.50;51.20;;;;;;4998049;28;20030;-52
2023/12/05 07:07:36;;;;;;;2.22;2.00;;;24.50;51.20;;;;;;4996206;28;20105;-51
2023/12/05 07:10:02;;;;;;;2.22;2.00;;;24.50;51.40;;;;;;4986828;28;20410;-51
2023/12/05 07:12:28;;;;;;;2.20;2.00;;;24.50;51.40;;;;;;5000682;28;20057;-53
2023/12/05 07:14:54;;;;;;;2.10;1.90;;;24.50;51.30;;;;;;4988573;28;20068;-52
2023/12/05 07:17:19;;;;;;;2.10;1.90;;;24.50;51.30;;;;;;4999994;28;20121;-51
2023/12/05 07:19:45;;;;;;;1.83;1.70;;;24.50;51.40;;;;;;5003203;28;20072;-52
2023/12/05 07:22:11;;;;;;;2.72;2.08;;;24.40;51.40;;;;;;4997625;28;20215;-51
2023/12/05 07:24:37;;;;;;;1.85;1.75;;;24.40;51.40;;;;;;5002149;28;20026;-51
2023/12/05 07:27:03;;;;;;;2.10;1.90;;;24.40;51.30;;;;;;4997914;28;20322;-50
2023/12/05 07:29:29;;;;;;;2.42;2.08;;;24.40;51.50;;;;;;5001867;28;20040;-53
2023/12/05 07:31:54;;;;;;;2.72;2.08;;;24.30;51.50;;;;;;5003328;28;20132;-53
2023/12/05 07:34:20;;;;;;;3.00;2.42;;;24.40;51.40;;;;;;5000773;28;20112;-51
2023/12/05 07:36:46;;;;;;;2.80;2.35;;;24.40;51.40;;;;;;5001894;28;20467;-52
2023/12/05 07:39:12;;;;;;;2.10;1.85;;;24.40;51.50;;;;;;4998963;28;20105;-51
2023/12/05 07:41:39;;;;;;;2.08;1.83;;;24.40;51.40;;;;;;4992193;28;20038;-51
2023/12/05 07:44:06;;;;;;;2.47;2.25;;;24.40;51.30;;;;;;4994272;28;20042;-53
2023/12/05 07:46:31;;;;;;;2.50;2.25;;;24.40;51.40;;;;;;4994051;28;20414;-51
2023/12/05 07:48:57;;;;;;;2.13;1.92;;;24.40;51.20;;;;;;4997915;28;20042;-52
2023/12/05 07:51:22;;;;;;;2.95;2.03;;;24.40;51.20;;;;;;4994830;28;20049;-51
2023/12/05 07:53:50;;;;;;;5.03;2.67;;;24.30;51.20;;;;;;4992365;28;20064;-50
2023/12/05 07:56:15;;;;;;;3.55;2.13;;;24.30;51.40;;;;;;4991026;28;20048;-51
2023/12/05 07:58:41;;;;;;;2.85;2.20;;;24.20;51.60;;;;;;4991712;28;20026;-48
2023/12/05 08:01:07;;;;;;;2.90;2.38;;;24.00;51.70;;;;;;4989642;28;20053;-50
2023/12/05 08:03:34;;;;;;;3.80;2.50;;;23.90;51.90;;;;;;4997098;28;20034;-52
2023/12/05 08:06:01;;;;;;;3.90;2.05;;;23.80;52.10;;;;;;4997111;28;20052;-50
2023/12/05 08:08:27;;;;;;;4.57;2.45;;;23.70;52.40;;;;;;5001102;28;20271;-53
2023/12/05 08:10:53;;;;;;;3.90;2.42;;;23.60;52.60;;;;;;5002069;28;20046;-52
2023/12/05 08:13:18;;;;;;;4.28;2.47;;;23.50;52.80;;;;;;4995825;28;20064;-50
2023/12/05 08:15:44;;;;;;;5.10;2.80;;;23.30;53.00;;;;;;4993400;28;20447;-51
2023/12/05 08:18:09;;;;;;;3.13;2.65;;;23.20;53.20;;;;;;4999625;28;20653;-52
2023/12/05 08:20:35;;;;;;;4.10;2.20;;;23.10;53.40;;;;;;5001899;28;20026;-51
2023/12/05 08:23:00;;;;;;;5.97;2.92;;;23.00;53.70;;;;;;5002158;28;20034;-50
2023/12/05 08:25:26;;;;;;;4.13;2.85;;;22.90;53.80;;;;;;4998797;28;20041;-50
2023/12/05 08:27:51;;;;;;;5.20;2.70;;;22.80;53.90;;;;;;4986062;28;20076;-52
2023/12/05 08:30:17;;;;;;;4.10;2.95;;;22.70;54.00;;;;;;5002511;28;20034;-52
2023/12/05 08:32:42;;;;;;;5.35;3.20;;;22.80;54.20;;;;;;4985692;28;20360;-50
2023/12/05 08:35:09;;;;;;;4.88;2.50;;;23.00;53.50;;;;;;4995034;28;20046;-52
2023/12/05 08:37:34;;;;;;;5.90;3.28;;;23.30;52.70;;;;;;5007445;28;20212;-51
2023/12/05 08:40:00;;;;;;;6.63;3.30;;;23.50;52.20;;;;;;4995586;28;20038;-52
2023/12/05 08:42:28;;;;;;;7.13;3.13;;;23.70;51.80;;;;;;4997809;28;20563;-51
2023/12/05 08:44:54;;;;;;;4.35;2.92;;;23.90;51.30;;;;;;5000923;28;20030;-50
2023/12/05 08:47:20;;;;;;;7.28;3.00;;;24.20;51.00;;;;;;4995923;28;20037;-52
2023/12/05 08:49:45;;;;;;;5.03;3.03;;;24.20;50.80;;;;;;4996893;28;20030;-51
2023/12/05 08:52:11;;;;;;;3.47;2.55;;;24.40;50.50;;;;;;4998723;28;20614;-52
2023/12/05 08:54:36;;;;;;;4.43;2.97;;;24.50;50.20;;;;;;4999491;28;20030;-51
2023/12/05 08:57:02;;;;;;;4.75;3.05;;;24.70;50.10;;;;;;4998831;28;20411;-52
2023/12/05 08:59:27;;;;;;;5.13;3.15;;;24.80;49.90;;;;;;5000705;28;20245;-51
2023/12/05 09:01:53;;;;;;;4.13;2.55;;;24.90;49.70;;;;;;5001379;28;20029;-52
2023/12/05 09:04:18;;;;;;;3.35;2.33;;;25.00;49.60;;;;;;5004017;28;20026;-51
2023/12/05 09:06:44;;;;;;;4.90;2.75;;;25.10;49.50;;;;;;5000921;28;20030;-51
2023/12/05 09:09:09;;;;;;;4.18;2.80;;;25.20;49.30;;;;;;5001181;28;20029;-51
2023/12/05 09:11:37;;;;;;;3.72;2.58;;;25.30;49.20;;;;;;5008933;28;20443;-52
2023/12/05 09:14:05;;;;;;;4.72;2.85;;;25.40;49.20;;;;;;4983837;28;20049;-52
2023/12/05 09:16:31;;;;;;;4.78;2.45;;;25.50;49.10;;;;;;4999043;28;20519;-53
2023/12/05 09:18:56;;;;;;;3.55;2.58;;;25.50;48.90;;;;;;5001248;28;20039;-52
2023/12/05 09:21:22;;;;;;;3.42;2.28;;;25.50;48.80;;;;;;4996136;28;20035;-52
2023/12/05 09:23:47;;;;;;;2.88;2.25;;;25.70;48.60;;;;;;5004412;28;20684;-51
2023/12/05 09:26:14;;;;;;;2.83;2.20;;;25.90;48.40;;;;;;5002720;28;20038;-52
2023/12/05 09:28:39;;;;;;;2.95;2.40;;;26.00;48.30;;;;;;4997000;28;20502;-51
2023/12/05 09:31:05;;;;;;;3.47;2.50;;;26.00;48.30;;;;;;4996845;28;20029;-52
2023/12/05 09:33:30;;;;;;;4.20;2.10;;;26.20;48.10;;;;;;4998024;28;20030;-52
2023/12/05 09:35:56;;;;;;;2.75;2.25;;;26.30;47.90;;;;;;4998408;28;20045;-51
2023/12/05 09:38:22;;;;;;;2.75;1.98;;;26.40;47.70;;;;;;4999539;28;20045;-51
2023/12/05 09:40:49;;;;;;;2.88;2.22;;;26.40;47.60;;;;;;4996430;28;20030;-52
2023/12/05 09:43:16;;;;;;;2.97;2.05;;;26.50;47.70;;;;;;4999722;28;20117;-53
2023/12/05 09:45:43;;;;;;;3.55;2.45;;;26.60;47.60;;;;;;4999970;28;20146;-51
2023/12/05 09:48:11;;;;;;;5.32;2.40;;;26.60;47.50;;;;;;4985366;28;20036;-52
2023/12/05 09:50:37;;;;;;;3.17;2.15;;;26.60;47.60;;;;;;5000628;28;20035;-53
2023/12/05 09:53:05;;;;;;;3.20;2.15;;;26.60;47.70;;;;;;4998306;28;20700;-52
2023/12/05 09:55:31;;;;;;;2.80;2.00;;;26.70;47.60;;;;;;5000574;28;20033;-52
2023/12/05 09:57:57;;;;;;;3.03;1.88;;;26.70;47.50;;;;;;4996939;28;20065;-52
2023/12/05 10:00:24;;;;;;;2.67;1.85;;;26.70;47.60;;;;;;5001565;28;20070;-52
2023/12/05 10:02:51;;;;;;;3.17;2.10;;;26.70;47.60;;;;;;5000330;28;20571;-53
2023/12/05 10:05:20;;;;;;;2.83;1.73;;;26.60;47.60;;;;;;5000483;28;20033;-52
2023/12/05 10:07:47;;;;;;;3.00;2.30;;;26.60;47.80;;;;;;5006937;28;20033;-52
2023/12/05 10:10:15;;;;;;;3.45;2.25;;;26.60;47.90;;;;;;4999283;28;20019;-52
2023/12/05 10:12:42;;;;;;;2.40;1.80;;;26.50;48.10;;;;;;5002697;28;20018;-50
2023/12/05 10:15:08;;;;;;;2.30;1.75;;;26.40;48.00;;;;;;5003032;28;20554;-49
2023/12/05 10:17:35;;;;;;;3.00;1.95;;;26.40;48.30;;;;;;4998993;28;20041;-50
2023/12/05 10:20:01;;;;;;;2.05;1.63;;;26.30;48.30;;;;;;4994948;28;20034;-51
2023/12/05 10:22:26;;;;;;;2.78;1.80;;;26.30;48.30;;;;;;5003356;28;20137;-52
2023/12/05 10:24:54;;;;;;;3.97;1.85;;;26.30;48.30;;;;;;4994248;28;20180;-52
2023/12/05 10:27:20;;;;;;;2.67;2.05;;;26.30;48.50;;;;;;4999688;28;20550;-52
2023/12/05 10:29:45;;;;;;;4.15;1.90;;;26.30;48.50;;;;;;5004901;28;20117;-52
2023/12/05 10:32:12;;;;;;;2.10;1.73;;;26.30;48.40;;;;;;5002793;28;20045;-52
2023/12/05 10:34:51;;;;;;;2.03;1.63;;;26.30;48.70;;;;;;4999778;28;20042;-52
2023/12/05 10:37:24;;;;;;;2.22;1.65;;;26.30;48.60;;;;;;5005148;28;20141;-50
2023/12/05 10:39:51;;;;;;;2.90;1.98;;;26.20;48.70;;;;;;4996660;28;20026;-50
2023/12/05 10:42:18;;;;;;;2.33;2.03;;;26.10;48.80;;;;;;4996143;28;20022;-50
2023/12/05 10:44:44;;;;;;;1.88;1.67;;;26.00;48.90;;;;;;5005608;28;20041;-52
2023/12/05 10:47:13;;;;;;;1.83;1.38;;;26.00;49.00;;;;;;5002110;28;20030;-52
2023/12/05 10:49:43;;;;;;;3.05;1.80;;;25.90;49.20;;;;;;5004485;28;20026;-50
2023/12/05 10:52:11;;;;;;;2.00;1.67;;;25.80;49.40;;;;;;5002165;28;20481;-50
2023/12/05 10:54:38;;;;;;;2.38;1.90;;;25.70;49.40;;;;;;5003736;28;20053;-50
2023/12/05 10:57:10;;;;;;;1.70;1.40;;;25.70;49.60;;;;;;4995279;28;20069;-50
2023/12/05 10:59:38;;;;;;;1.80;1.50;;;25.60;49.50;;;;;;5003265;28;20048;-49
2023/12/05 11:02:13;;;;;;;1.98;1.58;;;25.60;49.60;;;;;;4994539;28;20424;-51
2023/12/05 11:04:40;;;;;;;;;;;25.60;49.70;;;;;;5001487;28;20030;-49
2023/12/05 11:07:05;;;;;;;2.20;1.80;;;25.60;49.70;;;;;;4994604;28;20016;-49
2023/12/05 11:09:31;;;;;;;2.50;1.90;;;25.50;49.70;;;;;;4998351;28;20125;-49
2023/12/05 11:11:58;;;;;;;2.25;1.77;;;25.50;49.60;;;;;;4995563;28;20495;-50
2023/12/05 11:14:26;;;;;;;2.05;1.73;;;25.50;49.60;;;;;;4984516;28;20045;-53
2023/12/05 11:16:54;;;;;;;1.60;1.40;;;25.50;49.80;;;;;;4997744;28;20120;-48
2023/12/05 11:19:43;;;;;;;1.70;1.60;;;25.40;49.80;;;;;;5002359;28;20036;-50
2023/12/05 11:22:35;;;;;;;2.10;1.75;;;25.30;50.00;;;;;;4997831;28;20034;-53
2023/12/05 11:25:22;;;;;;;2.08;1.65;;;25.20;50.20;;;;;;4998305;28;20033;-53
2023/12/05 11:28:12;;;;;;;1.65;1.35;;;25.10;50.30;;;;;;4997094;28;20038;-49
2023/12/05 11:31:10;;;;;;;2.03;1.83;;;24.90;50.40;;;;;;4993163;28;20154;-51
2023/12/05 11:33:54;;;;;;;1.42;1.33;;;24.90;50.60;;;;;;4998936;28;20109;-52
2023/12/05 11:36:41;;;;;;;1.75;1.27;;;24.80;50.80;;;;;;5020352;23;20498;-50
2023/12/05 11:39:07;;;;;;;2.05;1.48;;;24.70;50.80;;;;;;5035940;28;20029;-53
2023/12/05 11:41:32;;;;;;;1.83;1.33;;;24.70;51.60;;;;;;5039822;28;20127;-52
2023/12/05 11:44:13;;;;;;;1.77;1.45;;;24.60;51.00;;;;;;5047599;28;20021;-50
2023/12/05 11:46:43;;;;;;;1.85;1.40;;;24.60;51.10;;;;;;5039750;28;20035;-51
2023/12/05 11:49:08;;;;;;;1.35;1.23;;;24.50;51.10;;;;;;5043898;28;20647;-51
2023/12/05 11:51:36;;;;;;;2.55;1.60;;;24.50;51.20;;;;;;5047661;28;20017;-53
2023/12/05 11:54:08;;;;;;;1.98;1.38;;;24.40;51.10;;;;;;5046997;28;20363;-51
2023/12/05 11:56:34;;;;;;;1.98;1.50;;;24.40;51.40;;;;;;5031963;28;20071;-56
2023/12/05 11:59:23;;;;;;;1.90;1.40;;;24.30;51.80;;;;;;5042038;28;20458;-51
2023/12/05 12:01:49;;;;;;;2.45;1.70;;;24.30;51.30;;;;;;5042493;28;20029;-51
2023/12/05 12:04:26;;;;;;;2.45;1.40;;;24.30;51.30;;;;;;5048866;28;20434;-51
2023/12/05 12:06:53;;;;;;;2.47;1.52;;;24.30;51.30;;;;;;5044267;28;20035;-50
2023/12/05 12:09:18;;;;;;;1.90;1.55;;;24.20;51.30;;;;;;5050658;28;20051;-54
2023/12/05 12:11:44;;;;;;;4.03;1.42;;;24.20;51.40;;;;;;5049106;28;20398;-52
2023/12/05 12:14:18;;;;;;;2.53;1.50;;;24.20;51.30;;;;;;5046485;28;20116;-50
2023/12/05 12:16:45;;;;;;;2.13;1.70;;;24.20;51.30;;;;;;5041523;28;20033;-51
2023/12/05 12:19:15;;;;;;;2.17;1.52;;;24.20;51.30;;;;;;5040816;28;20025;-50
2023/12/05 12:21:41;;;;;;;2.08;1.45;;;24.30;51.40;;;;;;5044155;28;20083;-52
2023/12/05 12:24:08;;;;;;;1.67;1.30;;;24.20;51.30;;;;;;5040880;28;20041;-51
2023/12/05 12:26:34;;;;;;;2.05;1.20;;;24.20;51.30;;;;;;5040429;28;20195;-52
2023/12/05 12:29:09;;;;;;;2.42;1.58;;;24.30;51.30;;;;;;5047264;28;20752;-53
2023/12/05 12:31:38;;;;;;;;;;;24.30;51.10;;;;;;5052674;28;20119;-50
2023/12/05 12:34:07;;;;;;;1.52;1.15;;;24.30;51.10;;;;;;5044732;28;19912;-53
2023/12/05 12:36:34;;;;;;;1.33;1.20;;;24.30;51.10;;;;;;5051499;28;20037;-52
2023/12/05 12:39:00;;;;;;;1.40;1.30;;;24.40;50.90;;;;;;5045484;28;20059;-52
2023/12/05 12:41:26;;;;;;;1.98;1.40;;;24.40;50.80;;;;;;5052003;28;20052;-52
2023/12/05 12:43:55;;;;;;;1.40;1.30;;;24.50;50.70;;;;;;5066061;28;20486;-49
2023/12/05 12:46:21;;;;;;;1.60;1.40;;;24.50;50.70;;;;;;5038651;28;20030;-50